createdAt,value
2023-03-02T00:02:04.564Z,15.30
2023-03-02T00:04:45.894Z,14.32
2023-03-02T00:07:17.046Z,15.77
2023-03-02T00:09:49.264Z,14.18
2023-03-02T00:12:17.335Z,15.35
2023-03-02T00:14:48.408Z,15.95
2023-03-02T00:17:17.238Z,14.57
2023-03-02T00:20:22.550Z,14.25
2023-03-02T00:22:50.483Z,15.43
2023-03-02T00:25:19.190Z,13.90
2023-03-02T00:27:48.944Z,13.48
2023-03-02T00:30:22.107Z,13.98
2023-03-02T00:32:50.359Z,15.18
2023-03-02T00:35:18.546Z,14.70
2023-03-02T00:37:50.255Z,15.30
2023-03-02T00:40:18.733Z,15.50
2023-03-02T00:42:47.414Z,15.65
2023-03-02T00:45:16.869Z,14.77
2023-03-02T00:47:45.602Z,14.90
2023-03-02T00:50:41.323Z,14.52
2023-03-02T00:53:20.113Z,14.60
2023-03-02T00:56:02.459Z,15.27
2023-03-02T00:58:33.478Z,14.70
2023-03-02T01:01:10.241Z,15.10
2023-03-02T01:03:41.754Z,14.60
2023-03-02T01:06:18.098Z,15.90
2023-03-02T01:08:46.572Z,15.15
2023-03-02T01:11:18.950Z,14.80
2023-03-02T01:13:50.766Z,14.45
2023-03-02T01:16:20.808Z,14.90
2023-03-02T01:18:49.391Z,14.18
2023-03-02T01:21:17.528Z,14.75
2023-03-02T01:23:45.723Z,15.23
2023-03-02T01:26:14.856Z,15.90
2023-03-02T01:28:43.304Z,14.85
2023-03-02T01:31:13.749Z,13.93
2023-03-02T01:33:42.131Z,14.05
2023-03-02T01:36:13.799Z,14.95
2023-03-02T01:38:41.854Z,15.25
2023-03-02T01:41:30.372Z,15.90
2023-03-02T01:44:00.642Z,14.68
2023-03-02T01:46:30.521Z,15.07
2023-03-02T01:49:07.612Z,16.13
2023-03-02T01:52:01.562Z,15.52
2023-03-02T01:54:32.070Z,15.93
2023-03-02T01:57:02.962Z,15.95
2023-03-02T02:00:10.472Z,18.45
2023-03-02T02:02:42.243Z,16.52
2023-03-02T02:05:22.458Z,16.02
2023-03-02T02:07:59.597Z,16.13
2023-03-02T02:10:29.955Z,16.45
2023-03-02T02:12:58.066Z,19.10
2023-03-02T02:15:26.819Z,16.42
2023-03-02T02:17:59.848Z,17.30
2023-03-02T02:20:37.509Z,16.83
2023-03-02T02:23:37.662Z,18.13
2023-03-02T02:26:11.108Z,17.20
2023-03-02T02:29:03.689Z,19.38
2023-03-02T02:31:50.825Z,18.40
2023-03-02T02:34:42.856Z,18.80
2023-03-02T02:37:24.076Z,17.58
2023-03-02T02:39:52.695Z,18.80
2023-03-02T02:42:28.961Z,17.88
2023-03-02T02:44:58.918Z,17.58
2023-03-02T02:47:28.591Z,17.73
2023-03-02T02:49:58.757Z,18.80
2023-03-02T02:52:28.261Z,18.92
2023-03-02T02:54:58.093Z,20.55
2023-03-02T02:57:27.226Z,20.42
2023-03-02T02:59:58.343Z,23.58
2023-03-02T03:02:31.168Z,22.43
2023-03-02T03:05:04.093Z,25.80
2023-03-02T03:07:35.504Z,26.25
2023-03-02T03:10:23.972Z,25.13
2023-03-02T03:12:53.011Z,27.05
2023-03-02T03:15:22.603Z,25.98
2023-03-02T03:17:58.033Z,26.75
2023-03-02T03:20:30.007Z,25.40
2023-03-02T03:23:00.677Z,26.02
2023-03-02T03:25:32.305Z,26.50
2023-03-02T03:28:07.298Z,25.35
2023-03-02T03:30:37.590Z,27.05
2023-03-02T03:33:11.228Z,25.42
2023-03-02T03:35:41.760Z,23.58
2023-03-02T03:38:10.074Z,24.60
2023-03-02T03:40:40.094Z,23.88
2023-03-02T03:43:08.229Z,23.27
2023-03-02T03:45:38.400Z,23.52
2023-03-02T03:48:07.514Z,22.70
2023-03-02T03:50:37.628Z,22.77
2023-03-02T03:53:15.184Z,22.42
2023-03-02T03:55:43.695Z,23.90
2023-03-02T03:58:12.022Z,23.60
2023-03-02T04:00:41.642Z,23.52
2023-03-02T04:03:11.592Z,25.58
2023-03-02T04:05:41.843Z,23.40
2023-03-02T04:08:09.932Z,24.35
2023-03-02T04:10:39.301Z,23.90
2023-03-02T04:13:11.790Z,24.55
2023-03-02T04:15:43.642Z,25.23
2023-03-02T04:18:16.894Z,28.13
2023-03-02T04:20:48.441Z,26.83
2023-03-02T04:23:18.734Z,28.10
2023-03-02T04:26:08.762Z,31.55
2023-03-02T04:28:38.222Z,31.75
2023-03-02T04:31:06.854Z,35.50
2023-03-02T04:33:36.877Z,36.97
2023-03-02T04:36:06.130Z,40.47
2023-03-02T04:38:35.972Z,41.58
2023-03-02T04:41:05.932Z,41.25
2023-03-02T04:43:34.590Z,46.22
2023-03-02T04:46:06.202Z,42.75
2023-03-02T04:48:35.795Z,45.70
2023-03-02T04:51:10.506Z,43.15
2023-03-02T04:53:39.880Z,41.85
2023-03-02T04:56:08.917Z,42.80
2023-03-02T04:58:43.885Z,43.65
2023-03-02T05:01:17.032Z,42.20
2023-03-02T05:03:48.300Z,42.25
2023-03-02T05:06:20.047Z,41.17
2023-03-02T05:08:54.767Z,40.55
2023-03-02T05:14:01.293Z,39.70
2023-03-02T05:16:37.201Z,38.05
2023-03-02T05:19:07.124Z,40.03
2023-03-02T05:21:36.423Z,38.35
2023-03-02T05:24:04.533Z,38.97
2023-03-02T05:26:34.845Z,36.58
2023-03-02T05:29:09.031Z,40.15
2023-03-02T05:31:43.176Z,39.05
2023-03-02T05:34:14.112Z,39.28
2023-03-02T05:36:44.409Z,38.10
2023-03-02T05:39:14.330Z,36.72
2023-03-02T05:41:45.752Z,35.10
2023-03-02T05:44:14.825Z,35.60
2023-03-02T05:46:43.084Z,33.13
2023-03-02T05:49:11.393Z,32.83
2023-03-02T05:51:39.884Z,31.60
2023-03-02T05:54:08.711Z,32.40
2023-03-02T05:56:39.788Z,31.77
2023-03-02T05:59:12.657Z,30.83
2023-03-02T06:01:40.877Z,30.77
2023-03-02T06:04:09.189Z,27.80
2023-03-02T06:06:43.793Z,27.50
2023-03-02T06:09:14.201Z,25.13
2023-03-02T06:11:42.893Z,26.25
2023-03-02T06:14:10.852Z,25.63
2023-03-02T06:16:39.261Z,30.02
2023-03-02T06:19:07.978Z,25.90
2023-03-02T06:21:41.097Z,25.45
2023-03-02T06:24:11.594Z,22.40
2023-03-02T06:26:40.494Z,21.30
2023-03-02T06:29:08.947Z,20.95
2023-03-02T06:31:37.041Z,20.10
2023-03-02T06:34:06.844Z,22.00
2023-03-02T06:36:51.241Z,21.67
2023-03-02T06:39:19.910Z,22.15
2023-03-02T06:41:49.544Z,22.15
2023-03-02T06:44:37.649Z,21.08
2023-03-02T06:47:05.937Z,17.45
2023-03-02T06:49:34.067Z,19.08
2023-03-02T06:52:04.928Z,17.85
2023-03-02T06:54:34.866Z,17.40
2023-03-02T06:57:03.471Z,16.15
2023-03-02T06:59:33.208Z,14.95
2023-03-02T07:02:11.341Z,16.40
2023-03-02T07:04:40.054Z,14.55
2023-03-02T07:07:09.744Z,11.20
2023-03-02T07:09:38.071Z,11.93
2023-03-02T07:12:06.344Z,10.88
2023-03-02T07:14:37.234Z,10.52
2023-03-02T07:17:06.035Z,9.10
2023-03-02T07:19:40.706Z,6.20
2023-03-02T07:22:10.767Z,5.95
2023-03-02T07:24:40.349Z,4.68
2023-03-02T07:27:08.533Z,4.45
2023-03-02T07:29:37.441Z,5.35
2023-03-02T07:32:06.990Z,4.13
2023-03-02T07:34:37.732Z,3.30
2023-03-02T07:37:06.150Z,3.88
2023-03-02T07:39:36.597Z,4.10
2023-03-02T07:42:11.629Z,3.63
2023-03-02T07:44:43.192Z,4.43
2023-03-02T07:47:13.077Z,4.28
2023-03-02T07:49:41.312Z,4.55
2023-03-02T07:52:09.456Z,4.30
2023-03-02T07:54:37.513Z,3.75
2023-03-02T07:57:05.450Z,2.72
2023-03-02T07:59:34.289Z,2.90
2023-03-02T08:02:04.952Z,2.28
2023-03-02T08:04:44.976Z,2.83
2023-03-02T08:07:13.055Z,2.85
2023-03-02T08:09:41.405Z,2.38
2023-03-02T08:12:09.441Z,2.05
2023-03-02T08:14:39.650Z,2.90
2023-03-02T08:17:08.457Z,3.35
2023-03-02T08:19:40.276Z,4.03
2023-03-02T08:22:08.595Z,6.15
2023-03-02T08:24:37.178Z,6.72
2023-03-02T08:27:06.992Z,5.40
2023-03-02T08:29:35.240Z,6.38
2023-03-02T08:32:04.625Z,6.28
2023-03-02T08:34:40.070Z,6.05
2023-03-02T08:37:08.132Z,6.38
2023-03-02T08:39:36.796Z,6.50
2023-03-02T08:42:08.363Z,8.02
2023-03-02T08:44:39.269Z,6.82
2023-03-02T08:47:07.412Z,5.90
2023-03-02T08:49:38.178Z,5.32
2023-03-02T08:52:06.660Z,5.20
2023-03-02T08:54:35.207Z,6.30
2023-03-02T08:57:04.156Z,4.53
2023-03-02T08:59:38.730Z,4.28
2023-03-02T09:02:07.399Z,3.63
2023-03-02T09:04:37.644Z,4.10
2023-03-02T09:07:06.055Z,3.92
2023-03-02T09:09:36.231Z,4.70
2023-03-02T09:12:06.102Z,3.10
2023-03-02T09:14:37.931Z,2.25
2023-03-02T09:17:08.115Z,2.20
2023-03-02T09:19:44.334Z,2.72
2023-03-02T09:22:14.024Z,3.40
2023-03-02T09:24:42.478Z,3.17
2023-03-02T09:27:11.541Z,3.03
2023-03-02T09:29:42.812Z,3.20
2023-03-02T09:32:13.660Z,2.85
2023-03-02T09:34:48.110Z,2.72
2023-03-02T09:37:16.747Z,4.00
2023-03-02T09:39:48.225Z,4.88
2023-03-02T09:42:44.629Z,4.97
2023-03-02T09:45:53.202Z,3.28
2023-03-02T09:49:20.748Z,2.70
2023-03-02T09:52:11.752Z,3.53
2023-03-02T09:54:40.524Z,2.38
2023-03-02T09:57:33.393Z,2.13
2023-03-02T10:00:19.220Z,1.83
2023-03-02T10:02:50.549Z,2.20
2023-03-02T10:05:28.983Z,2.20
2023-03-02T10:07:59.315Z,1.80
2023-03-02T10:10:46.050Z,2.08
2023-03-02T10:13:31.226Z,2.30
2023-03-02T10:16:10.611Z,1.90
2023-03-02T10:18:54.486Z,1.95
2023-03-02T10:21:42.121Z,1.98
2023-03-02T10:25:01.738Z,2.08
2023-03-02T10:27:41.438Z,1.73
2023-03-02T10:30:23.278Z,1.83
2023-03-02T10:32:56.515Z,2.53
2023-03-02T10:35:27.201Z,2.28
2023-03-02T10:38:22.556Z,2.70
2023-03-02T10:41:00.486Z,3.00
2023-03-02T10:43:54.596Z,2.42
2023-03-02T10:46:25.609Z,2.20
2023-03-02T10:49:30.941Z,2.42
2023-03-02T10:52:03.413Z,2.15
2023-03-02T10:54:34.375Z,2.33
2023-03-02T10:57:08.262Z,3.33
2023-03-02T10:59:45.125Z,2.60
2023-03-02T11:02:23.921Z,2.78
2023-03-02T11:05:30.106Z,3.00
2023-03-02T11:08:16.759Z,3.35
2023-03-02T11:11:00.549Z,2.97
2023-03-02T11:14:14.269Z,3.25
2023-03-02T11:19:37.093Z,1.83
2023-03-02T11:22:34.411Z,2.30
2023-03-02T11:25:08.723Z,3.15
2023-03-02T11:27:37.754Z,2.05
2023-03-02T11:30:27.398Z,1.98
2023-03-02T11:33:03.523Z,2.25
2023-03-02T11:35:46.488Z,1.67
2023-03-02T11:38:28.216Z,2.05
2023-03-02T11:41:00.995Z,2.63
2023-03-02T11:43:30.172Z,2.17
2023-03-02T11:46:08.741Z,2.25
2023-03-02T11:48:49.774Z,2.50
2023-03-02T11:51:26.983Z,2.38
2023-03-02T11:54:03.957Z,2.78
2023-03-02T11:56:36.879Z,1.88
2023-03-02T11:59:07.511Z,2.08
2023-03-02T12:01:40.542Z,2.15
2023-03-02T12:04:10.918Z,1.92
2023-03-02T12:06:44.703Z,1.80
2023-03-02T12:09:31.441Z,2.25
2023-03-02T12:12:34.384Z,1.88
2023-03-02T12:15:02.843Z,2.60
2023-03-02T12:17:35.433Z,2.47
2023-03-02T12:20:30.303Z,2.25
2023-03-02T12:23:22.100Z,2.30
2023-03-02T12:25:51.967Z,2.10
2023-03-02T12:28:33.228Z,2.15
2023-03-02T12:31:06.109Z,2.35
2023-03-02T12:33:42.769Z,2.10
2023-03-02T12:36:15.559Z,2.00
2023-03-02T12:38:53.289Z,1.70
2023-03-02T12:41:31.108Z,2.20
2023-03-02T12:44:21.308Z,1.90
2023-03-02T12:46:50.784Z,2.10
2023-03-02T12:49:35.714Z,1.92
2023-03-02T12:52:27.918Z,1.50
2023-03-02T12:55:04.353Z,1.45
2023-03-02T12:57:33.235Z,1.75
2023-03-02T13:00:03.625Z,2.00
2023-03-02T13:02:34.342Z,1.40
2023-03-02T13:05:27.496Z,1.55
2023-03-02T13:08:05.714Z,2.17
2023-03-02T13:10:36.810Z,2.15
2023-03-02T13:13:19.127Z,1.83
2023-03-02T13:15:58.494Z,1.70
2023-03-02T13:18:31.921Z,1.75
2023-03-02T13:21:00.974Z,1.83
2023-03-02T13:23:31.037Z,1.88
2023-03-02T13:26:01.330Z,1.95
2023-03-02T13:28:34.666Z,1.80
2023-03-02T13:31:21.386Z,2.45
2023-03-02T13:33:53.346Z,2.08
2023-03-02T13:36:26.123Z,2.17
2023-03-02T13:39:01.043Z,2.08
2023-03-02T13:41:34.485Z,1.83
2023-03-02T13:44:25.218Z,2.08
2023-03-02T13:46:53.572Z,2.03
2023-03-02T13:49:32.588Z,2.72
2023-03-02T13:52:36.831Z,2.28
2023-03-02T13:55:15.413Z,1.50
2023-03-02T13:57:46.230Z,1.75
2023-03-02T14:00:35.580Z,1.92
2023-03-02T14:03:03.711Z,1.90
2023-03-02T14:05:33.686Z,1.83
2023-03-02T14:08:07.526Z,2.25
2023-03-02T14:10:35.546Z,1.80
2023-03-02T14:13:13.625Z,2.22
2023-03-02T14:15:43.154Z,2.15
2023-03-02T14:18:47.074Z,1.63
2023-03-02T14:21:22.843Z,1.60
2023-03-02T14:24:13.483Z,1.38
2023-03-02T14:26:48.117Z,1.63
2023-03-02T14:29:26.780Z,1.95
2023-03-02T14:31:56.261Z,1.60
2023-03-02T14:34:24.788Z,1.98
2023-03-02T14:36:58.151Z,2.05
2023-03-02T14:39:54.124Z,1.80
2023-03-02T14:42:23.176Z,1.92
2023-03-02T14:44:51.862Z,1.60
2023-03-02T14:47:19.983Z,2.40
2023-03-02T14:49:49.496Z,1.95
2023-03-02T14:52:26.575Z,1.95
2023-03-02T14:54:58.258Z,2.10
2023-03-02T14:57:28.735Z,1.83
2023-03-02T15:00:00.181Z,1.90
2023-03-02T15:02:29.415Z,2.38
2023-03-02T15:05:12.668Z,1.80
2023-03-02T15:07:44.604Z,1.90
2023-03-02T15:10:17.852Z,2.20
2023-03-02T15:12:46.001Z,2.22
2023-03-02T15:15:17.154Z,2.20
2023-03-02T15:17:45.445Z,2.42
2023-03-02T15:20:17.499Z,2.65
2023-03-02T15:22:48.960Z,2.40
2023-03-02T15:25:17.788Z,2.78
2023-03-02T15:27:47.733Z,2.83
2023-03-02T15:30:16.204Z,2.75
2023-03-02T15:32:46.506Z,2.70
2023-03-02T15:35:23.448Z,2.97
2023-03-02T15:37:52.657Z,2.80
2023-03-02T15:40:23.498Z,2.90
2023-03-02T15:42:53.337Z,3.58
2023-03-02T15:45:22.524Z,3.45
2023-03-02T15:47:52.801Z,2.65
2023-03-02T15:50:22.524Z,2.90
2023-03-02T15:52:51.410Z,3.17
2023-03-02T15:55:20.397Z,3.08
2023-03-02T15:57:49.551Z,2.78
2023-03-02T16:00:18.758Z,4.88
2023-03-02T16:02:49.555Z,10.57
2023-03-02T16:05:17.764Z,17.17
2023-03-02T16:07:45.663Z,13.60
2023-03-02T16:10:17.392Z,16.83
2023-03-02T16:12:45.464Z,17.63
2023-03-02T16:15:16.038Z,25.25
2023-03-02T16:17:44.506Z,27.52
2023-03-02T16:20:13.076Z,30.00
2023-03-02T16:22:41.181Z,27.90
2023-03-02T16:25:11.699Z,30.65
2023-03-02T16:27:40.567Z,30.27
2023-03-02T16:30:11.342Z,28.65
2023-03-02T16:32:40.881Z,27.63
2023-03-02T16:35:09.773Z,28.33
2023-03-02T16:37:38.355Z,31.65
2023-03-02T16:40:08.119Z,32.08
2023-03-02T16:42:41.923Z,40.58
2023-03-02T16:45:10.910Z,42.60
2023-03-02T16:47:41.022Z,53.55
2023-03-02T16:50:11.369Z,49.88
2023-03-02T16:52:40.561Z,54.20
2023-03-02T16:55:11.982Z,53.45
2023-03-02T16:57:40.939Z,52.53
2023-03-02T17:00:12.029Z,54.58
2023-03-02T17:02:41.462Z,54.75
2023-03-02T17:05:12.996Z,55.15
2023-03-02T17:07:44.784Z,53.20
2023-03-02T17:10:19.936Z,47.80
2023-03-02T17:12:51.491Z,54.97
2023-03-02T17:15:23.628Z,60.85
2023-03-02T17:17:57.230Z,61.58
2023-03-02T17:20:25.746Z,60.00
2023-03-02T17:22:54.565Z,59.78
2023-03-02T17:25:26.949Z,56.35
2023-03-02T17:27:55.977Z,50.67
2023-03-02T17:30:25.338Z,51.78
2023-03-02T17:32:56.052Z,54.15
2023-03-02T17:35:24.279Z,54.38
2023-03-02T17:37:52.670Z,52.10
2023-03-02T17:40:21.777Z,55.78
2023-03-02T17:42:51.246Z,49.63
2023-03-02T17:45:23.503Z,47.05
2023-03-02T17:47:52.172Z,45.70
2023-03-02T17:50:20.882Z,47.08
2023-03-02T17:52:49.083Z,45.88
2023-03-02T17:55:17.412Z,42.35
2023-03-02T17:57:47.516Z,45.35
2023-03-02T18:00:19.965Z,39.55
2023-03-02T18:02:52.765Z,38.65
2023-03-02T18:05:24.757Z,43.50
2023-03-02T18:07:57.910Z,41.58
2023-03-02T18:13:01.665Z,41.30
2023-03-02T18:15:40.106Z,41.20
2023-03-02T18:18:15.586Z,40.80
2023-03-02T18:20:45.707Z,40.50
2023-03-02T18:23:19.630Z,39.40
2023-03-02T18:25:49.649Z,40.80
2023-03-02T18:28:23.727Z,42.20
2023-03-02T18:31:25.334Z,39.85
2023-03-02T18:33:55.874Z,38.63
2023-03-02T18:36:24.196Z,41.17
2023-03-02T18:38:54.682Z,41.33
2023-03-02T18:41:23.316Z,44.08
2023-03-02T18:43:52.424Z,48.90
2023-03-02T18:46:28.206Z,45.80
2023-03-02T18:48:56.943Z,43.22
2023-03-02T18:51:25.368Z,44.65
2023-03-02T18:53:54.177Z,44.58
2023-03-02T18:56:22.806Z,40.72
2023-03-02T18:58:51.659Z,43.38
2023-03-02T19:01:20.058Z,39.72
2023-03-02T19:03:49.210Z,39.97
2023-03-02T19:06:23.424Z,40.22
2023-03-02T19:08:59.270Z,33.80
2023-03-02T19:11:27.871Z,28.55
2023-03-02T19:13:59.687Z,30.25
2023-03-02T19:16:28.618Z,30.20
2023-03-02T19:18:59.236Z,28.05
2023-03-02T19:21:27.276Z,31.52
2023-03-02T19:23:58.251Z,28.55
2023-03-02T19:26:29.286Z,28.23
2023-03-02T19:28:57.866Z,29.10
2023-03-02T19:31:30.673Z,29.50
2023-03-02T19:33:59.927Z,30.05
2023-03-02T19:36:31.588Z,30.67
2023-03-02T19:38:59.764Z,29.08
2023-03-02T19:41:30.190Z,25.58
2023-03-02T19:44:03.982Z,25.30
2023-03-02T19:46:36.655Z,25.95
2023-03-02T19:49:05.752Z,21.33
2023-03-02T19:51:33.820Z,20.77
2023-03-02T19:54:04.191Z,23.33
2023-03-02T19:56:39.812Z,21.02
2023-03-02T19:59:11.552Z,21.65
2023-03-02T20:01:42.165Z,23.67
2023-03-02T20:04:13.140Z,20.90
2023-03-02T20:06:41.791Z,20.55
2023-03-02T20:09:10.213Z,19.70
2023-03-02T20:11:43.556Z,17.92
2023-03-02T20:14:27.659Z,19.60
2023-03-02T20:17:02.871Z,20.23
2023-03-02T20:19:52.055Z,20.27
2023-03-02T20:22:29.484Z,19.77
2023-03-02T20:24:58.638Z,17.95
2023-03-02T20:27:26.921Z,20.30
2023-03-02T20:29:59.765Z,18.95
2023-03-02T20:32:32.320Z,18.40
2023-03-02T20:35:01.526Z,18.27
2023-03-02T20:37:37.405Z,17.58
2023-03-02T20:40:11.100Z,17.88
2023-03-02T20:42:45.404Z,17.85
2023-03-02T20:45:36.494Z,17.88
2023-03-02T20:48:09.648Z,18.35
2023-03-02T20:50:39.172Z,18.50
2023-03-02T20:53:08.133Z,19.45
2023-03-02T20:55:45.078Z,19.83
2023-03-02T20:58:22.296Z,18.45
2023-03-02T21:00:54.087Z,16.35
2023-03-02T21:03:23.823Z,15.70
2023-03-02T21:05:55.155Z,13.35
2023-03-02T21:08:24.096Z,11.40
2023-03-02T21:10:54.095Z,13.95
2023-03-02T21:13:23.808Z,11.45
2023-03-02T21:15:55.171Z,10.23
2023-03-02T21:18:27.389Z,9.60
2023-03-02T21:20:57.420Z,9.82
2023-03-02T21:23:30.090Z,10.68
2023-03-02T21:26:06.468Z,9.13
2023-03-02T21:28:39.231Z,9.23
2023-03-02T21:31:14.697Z,8.75
2023-03-02T21:33:48.341Z,8.38
2023-03-02T21:36:22.166Z,8.82
2023-03-02T21:38:51.413Z,8.82
2023-03-02T21:41:28.195Z,9.15
2023-03-02T21:44:03.061Z,8.38
2023-03-02T21:46:32.527Z,9.05
2023-03-02T21:49:01.428Z,9.98
2023-03-02T21:51:30.645Z,9.52
2023-03-02T21:54:00.742Z,8.88
2023-03-02T21:56:38.189Z,9.05
2023-03-02T21:59:13.013Z,9.13
2023-03-02T22:01:44.192Z,9.23
2023-03-02T22:04:13.098Z,8.35
2023-03-02T22:06:44.134Z,9.65
2023-03-02T22:09:15.185Z,9.35
2023-03-02T22:11:43.695Z,8.50
2023-03-02T22:14:14.380Z,8.77
2023-03-02T22:16:46.658Z,7.50
2023-03-02T22:19:25.646Z,8.90
2023-03-02T22:21:55.548Z,8.38
2023-03-02T22:24:30.142Z,9.88
2023-03-02T22:27:26.373Z,10.13
2023-03-02T22:29:57.997Z,10.32
2023-03-02T22:32:38.103Z,9.55
2023-03-02T22:35:21.341Z,7.65
2023-03-02T22:38:02.744Z,9.63
2023-03-02T22:40:35.512Z,10.52
2023-03-02T22:43:38.638Z,10.48
2023-03-02T22:46:15.995Z,10.55
2023-03-02T22:48:46.458Z,10.43
2023-03-02T22:51:17.940Z,8.75
2023-03-02T22:53:56.463Z,8.50
2023-03-02T22:56:28.575Z,9.93
2023-03-02T22:59:20.163Z,9.57
2023-03-02T23:01:48.496Z,8.45
2023-03-02T23:04:20.811Z,7.63
2023-03-02T23:06:55.075Z,7.85
2023-03-02T23:09:29.730Z,6.82
2023-03-02T23:12:16.062Z,6.55
2023-03-02T23:15:01.048Z,6.95
2023-03-02T23:17:37.924Z,7.45
2023-03-02T23:20:09.616Z,6.82
2023-03-02T23:22:39.858Z,6.75
2023-03-02T23:25:11.553Z,6.60
2023-03-02T23:27:41.066Z,6.28
2023-03-02T23:30:10.458Z,6.95
2023-03-02T23:32:40.972Z,5.82
2023-03-02T23:35:09.462Z,6.75
2023-03-02T23:37:41.037Z,7.28
2023-03-02T23:40:10.558Z,6.68
2023-03-02T23:42:38.459Z,7.65
2023-03-02T23:45:07.947Z,7.60
2023-03-02T23:47:43.504Z,7.13
2023-03-02T23:50:12.517Z,8.73
2023-03-02T23:52:42.687Z,9.40
2023-03-02T23:55:13.224Z,9.95
2023-03-02T23:57:51.065Z,8.75
